Time,TemperatureF,DewpointF,PressureIn,WindDirection,WindDirectionDegrees,WindSpeedMPH,WindSpeedGustMPH,Humidity,HourlyPrecipIn,Conditions,Clouds,dailyrainin,SoftwareType,DateUTC
2013-03-19 00:05:00,40.1,39.0,29.90,East,92,0.0,2.0,96,0.04,,,0.30,weatherlink.com 1.10,2013-03-19 04:05:00,
2013-03-19 00:20:00,39.9,39.0,29.90,East,92,0.0,1.0,97,0.04,,,0.31,weatherlink.com 1.10,2013-03-19 04:20:00,
2013-03-19 00:35:00,39.5,39.0,29.90,East,92,0.0,1.0,96,0.04,,,0.32,weatherlink.com 1.10,2013-03-19 04:35:00,
2013-03-19 00:50:00,39.3,39.0,29.89,East,92,1.0,2.0,97,0.04,,,0.33,weatherlink.com 1.10,2013-03-19 04:50:00,
2013-03-19 01:05:00,39.0,38.0,29.90,East,92,0.0,2.0,97,0.04,,,0.34,weatherlink.com 1.10,2013-03-19 05:05:00,
2013-03-19 01:20:00,38.9,38.0,29.90,East,92,0.0,2.0,97,0.03,,,0.34,weatherlink.com 1.10,2013-03-19 05:20:00,
2013-03-19 01:35:00,38.7,38.0,29.89,East,92,0.0,0.0,97,0.03,,,0.35,weatherlink.com 1.10,2013-03-19 05:35:00,
2013-03-19 01:50:00,38.6,38.0,29.90,East,92,0.0,1.0,97,0.03,,,0.36,weatherlink.com 1.10,2013-03-19 05:50:00,
2013-03-19 02:05:00,38.0,37.0,29.90,East,92,0.0,3.0,97,0.02,,,0.00,weatherlink.com 1.10,2013-03-19 06:05:00,
2013-03-19 02:20:00,38.1,37.0,29.89,East,92,0.0,0.0,97,0.03,,,0.01,weatherlink.com 1.10,2013-03-19 06:20:00,
2013-03-19 02:35:00,38.2,38.0,29.89,East,92,0.0,1.0,97,0.02,,,0.01,weatherlink.com 1.10,2013-03-19 06:35:00,
2013-03-19 02:50:00,38.4,38.0,29.89,East,92,0.0,1.0,98,0.02,,,0.02,weatherlink.com 1.10,2013-03-19 06:50:00,
2013-03-19 03:05:00,38.5,38.0,29.89,East,92,0.0,1.0,98,0.02,,,0.02,weatherlink.com 1.10,2013-03-19 07:05:00,
2013-03-19 03:20:00,38.5,38.0,29.88,East,92,0.0,1.0,98,0.01,,,0.02,weatherlink.com 1.10,2013-03-19 07:20:00,
2013-03-19 03:35:00,38.1,38.0,29.89,SSW,211,0.0,4.0,98,0.01,,,0.02,weatherlink.com 1.10,2013-03-19 07:35:00,
2013-03-19 03:50:00,38.0,38.0,29.88,SW,230,0.0,3.0,98,0.00,,,0.02,weatherlink.com 1.10,2013-03-19 07:50:00,
2013-03-19 04:05:00,38.1,38.0,29.88,SW,230,0.0,2.0,98,0.00,,,0.02,weatherlink.com 1.10,2013-03-19 08:05:00,
2013-03-19 04:20:00,38.3,38.0,29.88,SW,230,0.0,1.0,98,0.00,,,0.02,weatherlink.com 1.10,2013-03-19 08:20:00,
2013-03-19 04:35:00,38.3,38.0,29.87,WSW,250,0.0,3.0,98,0.00,,,0.02,weatherlink.com 1.10,2013-03-19 08:35:00,
2013-03-19 04:50:00,38.2,38.0,29.87,WSW,250,1.0,1.0,98,0.00,,,0.02,weatherlink.com 1.10,2013-03-19 08:50:00,
2013-03-19 05:05:00,38.3,38.0,29.87,WSW,250,0.0,2.0,98,0.00,,,0.02,weatherlink.com 1.10,2013-03-19 09:05:00,
2013-03-19 05:20:00,38.3,38.0,29.87,WSW,250,0.0,1.0,98,0.00,,,0.02,weatherlink.com 1.10,2013-03-19 09:20:00,
2013-03-19 05:35:00,38.3,38.0,29.87,WSW,250,0.0,2.0,98,0.00,,,0.02,weatherlink.com 1.10,2013-03-19 09:35:00,
2013-03-19 05:50:00,38.3,38.0,29.88,WSW,250,0.0,1.0,98,0.00,,,0.02,weatherlink.com 1.10,2013-03-19 09:50:00,
2013-03-19 06:05:00,38.3,38.0,29.88,WSW,250,0.0,2.0,98,0.00,,,0.02,weatherlink.com 1.10,2013-03-19 10:05:00,
2013-03-19 06:20:00,38.0,38.0,29.88,WSW,250,0.0,1.0,98,0.00,,,0.02,weatherlink.com 1.10,2013-03-19 10:20:00,
2013-03-19 06:35:00,37.8,37.0,29.89,WSW,250,0.0,2.0,98,0.00,,,0.02,weatherlink.com 1.10,2013-03-19 10:35:00,
2013-03-19 06:50:00,37.8,37.0,29.90,WSW,250,0.0,1.0,98,0.01,,,0.03,weatherlink.com 1.10,2013-03-19 10:50:00,
2013-03-19 07:05:00,37.8,37.0,29.91,West,277,0.0,3.0,98,0.01,,,0.03,weatherlink.com 1.10,2013-03-19 11:05:00,
2013-03-19 07:20:00,37.6,37.0,29.92,West,276,0.0,1.0,98,0.01,,,0.03,weatherlink.com 1.10,2013-03-19 11:20:00,
2013-03-19 07:35:00,40.1,40.0,29.93,NW,306,8.0,12.0,98,0.01,,,0.03,weatherlink.com 1.10,2013-03-19 11:35:00,
2013-03-19 07:50:00,42.5,42.0,29.93,North,359,2.0,7.0,99,0.00,,,0.03,weatherlink.com 1.10,2013-03-19 11:50:00,
2013-03-19 08:05:00,40.3,39.0,29.95,East,87,1.0,4.0,96,0.00,,,0.03,weatherlink.com 1.10,2013-03-19 12:05:00,
2013-03-19 08:20:00,41.6,41.0,29.95,NW,310,2.0,4.0,96,0.00,,,0.03,weatherlink.com 1.10,2013-03-19 12:20:00,
2013-03-19 08:35:00,44.7,38.0,29.95,WNW,297,3.0,13.0,78,0.00,,,0.03,weatherlink.com 1.10,2013-03-19 12:35:00,
2013-03-19 08:50:00,46.3,37.0,29.96,NW,309,6.0,14.0,70,0.00,,,0.03,weatherlink.com 1.10,2013-03-19 12:50:00,
2013-03-19 09:05:00,47.0,34.0,29.96,NNW,331,11.0,14.0,62,0.00,,,0.03,weatherlink.com 1.10,2013-03-19 13:05:00,
2013-03-19 09:21:00,47.5,36.0,29.97,WNW,299,9.0,14.0,64,0.00,,,0.03,weatherlink.com 1.10,2013-03-19 13:21:00,
2013-03-19 09:36:00,48.8,32.0,29.97,NW,310,10.0,12.0,53,0.00,,,0.03,weatherlink.com 1.10,2013-03-19 13:36:00,
2013-03-19 09:51:00,49.1,30.0,29.97,WNW,299,13.0,23.0,48,0.00,,,0.03,weatherlink.com 1.10,2013-03-19 13:51:00,
2013-03-19 10:06:00,49.7,29.0,29.98,North,4,8.0,19.0,45,0.00,,,0.03,weatherlink.com 1.10,2013-03-19 14:06:00,
2013-03-19 10:21:00,50.3,28.0,29.97,WNW,290,9.0,15.0,43,0.00,,,0.03,weatherlink.com 1.10,2013-03-19 14:21:00,
2013-03-19 10:51:00,51.9,29.0,29.97,WSW,251,6.0,9.0,42,0.00,,,0.03,weatherlink.com 1.10,2013-03-19 14:51:00,
2013-03-19 11:21:00,52.1,26.0,29.97,East,89,2.0,7.0,37,0.00,,,0.03,weatherlink.com 1.10,2013-03-19 15:21:00,
2013-03-19 11:36:00,53.6,27.0,29.97,WSW,249,9.0,11.0,36,0.00,,,0.03,weatherlink.com 1.10,2013-03-19 15:36:00,
2013-03-19 11:51:00,55.4,27.0,29.98,West,280,9.0,13.0,33,0.00,,,0.03,weatherlink.com 1.10,2013-03-19 15:51:00,
2013-03-19 12:06:00,55.5,29.0,29.98,NW,305,6.0,17.0,36,0.00,,,0.03,weatherlink.com 1.10,2013-03-19 16:06:00,
2013-03-19 12:21:00,56.2,27.0,29.98,West,278,9.0,13.0,32,0.00,,,0.03,weatherlink.com 1.10,2013-03-19 16:21:00,
2013-03-19 12:51:00,57.3,27.0,29.98,WNW,295,8.0,13.0,31,0.00,,,0.03,weatherlink.com 1.10,2013-03-19 16:51:00,
2013-03-19 13:06:00,58.3,26.0,29.98,NW,314,10.0,18.0,29,0.00,,,0.03,weatherlink.com 1.10,2013-03-19 17:06:00,
2013-03-19 13:21:00,59.5,23.0,29.98,West,260,8.0,15.0,25,0.00,,,0.03,weatherlink.com 1.10,2013-03-19 17:21:00,
2013-03-19 13:36:00,59.9,25.0,29.97,NW,317,5.0,16.0,26,0.00,,,0.03,weatherlink.com 1.10,2013-03-19 17:36:00,
2013-03-19 13:51:00,60.5,24.0,29.97,WNW,294,6.0,17.0,25,0.00,,,0.03,weatherlink.com 1.10,2013-03-19 17:51:00,
2013-03-19 14:06:00,61.1,28.0,29.97,NNW,347,6.0,14.0,28,0.00,,,0.03,weatherlink.com 1.10,2013-03-19 18:06:00,
2013-03-19 14:21:00,61.3,27.0,29.97,North,10,8.0,13.0,27,0.00,,,0.03,weatherlink.com 1.10,2013-03-19 18:21:00,
2013-03-19 14:36:00,61.5,23.0,29.97,NW,326,12.0,20.0,23,0.00,,,0.03,weatherlink.com 1.10,2013-03-19 18:36:00,
2013-03-19 14:51:00,62.0,24.0,29.96,WNW,293,6.0,19.0,23,0.00,,,0.03,weatherlink.com 1.10,2013-03-19 18:51:00,
2013-03-19 15:06:00,61.4,20.0,29.96,WNW,301,13.0,21.0,20,0.00,,,0.03,weatherlink.com 1.10,2013-03-19 19:06:00,
2013-03-19 15:21:00,62.2,22.0,29.96,NW,309,7.0,17.0,21,0.00,,,0.03,weatherlink.com 1.10,2013-03-19 19:21:00,
2013-03-19 15:36:00,62.7,22.0,29.96,WNW,303,10.0,16.0,21,0.00,,,0.03,weatherlink.com 1.10,2013-03-19 19:36:00,
2013-03-19 15:52:00,62.3,24.0,29.97,NNW,337,9.0,19.0,23,0.00,,,0.03,weatherlink.com 1.10,2013-03-19 19:52:00,
2013-03-19 16:06:00,61.6,23.0,29.97,NW,307,9.0,22.0,23,0.00,,,0.03,weatherlink.com 1.10,2013-03-19 20:06:00,
2013-03-19 16:22:00,61.4,23.0,29.97,NW,308,16.0,22.0,23,0.00,,,0.03,weatherlink.com 1.10,2013-03-19 20:22:00,
2013-03-19 16:36:00,61.2,23.0,29.97,NW,304,10.0,22.0,23,0.00,,,0.03,weatherlink.com 1.10,2013-03-19 20:36:00,
2013-03-19 16:51:00,61.1,25.0,29.98,NNW,335,10.0,23.0,25,0.00,,,0.03,weatherlink.com 1.10,2013-03-19 20:51:00,
2013-03-19 17:07:00,61.2,22.0,29.98,NNW,333,9.0,21.0,22,0.00,,,0.03,weatherlink.com 1.10,2013-03-19 21:07:00,
2013-03-19 17:22:00,60.8,22.0,29.98,NW,320,8.0,20.0,22,0.00,,,0.03,weatherlink.com 1.10,2013-03-19 21:22:00,
2013-03-19 17:37:00,60.5,22.0,29.98,NW,311,10.0,25.0,23,0.00,,,0.03,weatherlink.com 1.10,2013-03-19 21:37:00,
2013-03-19 17:52:00,60.8,23.0,29.98,NW,317,14.0,18.0,23,0.00,,,0.03,weatherlink.com 1.10,2013-03-19 21:52:00,
2013-03-19 18:07:00,60.4,24.0,29.98,WNW,287,8.0,17.0,25,0.00,,,0.03,weatherlink.com 1.10,2013-03-19 22:07:00,
2013-03-19 18:22:00,59.6,24.0,29.99,NNW,331,12.0,16.0,25,0.00,,,0.03,weatherlink.com 1.10,2013-03-19 22:22:00,
2013-03-19 18:37:00,59.7,23.0,29.99,NW,312,8.0,12.0,24,0.00,,,0.03,weatherlink.com 1.10,2013-03-19 22:37:00,
2013-03-19 19:07:00,57.5,23.0,30.00,WNW,291,6.0,15.0,26,0.00,,,0.03,weatherlink.com 1.10,2013-03-19 23:07:00,
2013-03-19 19:22:00,56.7,22.0,30.00,NW,307,5.0,18.0,26,0.00,,,0.03,weatherlink.com 1.10,2013-03-19 23:22:00,
2013-03-19 19:37:00,55.5,23.0,30.01,NW,305,5.0,11.0,28,0.00,,,0.03,weatherlink.com 1.10,2013-03-19 23:37:00,
2013-03-19 19:52:00,54.4,23.0,30.02,West,281,7.0,10.0,29,0.00,,,0.03,weatherlink.com 1.10,2013-03-19 23:52:00,
2013-03-19 20:07:00,54.2,21.0,30.03,WNW,299,4.0,17.0,27,0.00,,,0.03,weatherlink.com 1.10,2013-03-20 00:07:00,
2013-03-19 20:22:00,53.8,19.0,30.04,NW,312,5.0,10.0,26,0.00,,,0.03,weatherlink.com 1.10,2013-03-20 00:22:00,
2013-03-19 20:37:00,53.2,20.0,30.04,NW,305,3.0,9.0,27,0.00,,,0.03,weatherlink.com 1.10,2013-03-20 00:37:00,
2013-03-19 20:52:00,52.4,18.0,30.04,NW,308,6.0,10.0,26,0.00,,,0.03,weatherlink.com 1.10,2013-03-20 00:52:00,
2013-03-19 21:07:00,52.5,16.0,30.04,NW,311,8.0,14.0,24,0.00,,,0.03,weatherlink.com 1.10,2013-03-20 01:07:00,
2013-03-19 21:22:00,52.3,15.0,30.04,NW,318,5.0,16.0,23,0.00,,,0.03,weatherlink.com 1.10,2013-03-20 01:22:00,
2013-03-19 21:37:00,51.7,15.0,30.05,NW,324,3.0,14.0,23,0.00,,,0.03,weatherlink.com 1.10,2013-03-20 01:37:00,
2013-03-19 21:52:00,50.9,15.0,30.05,NW,305,4.0,12.0,24,0.00,,,0.03,weatherlink.com 1.10,2013-03-20 01:52:00,
2013-03-19 22:07:00,50.2,15.0,30.06,WNW,297,6.0,9.0,24,0.00,,,0.03,weatherlink.com 1.10,2013-03-20 02:07:00,
2013-03-19 22:22:00,49.7,14.0,30.06,WNW,303,5.0,9.0,24,0.00,,,0.03,weatherlink.com 1.10,2013-03-20 02:22:00,
2013-03-19 22:37:00,49.1,14.0,30.06,WNW,291,6.0,9.0,24,0.00,,,0.03,weatherlink.com 1.10,2013-03-20 02:37:00,
2013-03-19 22:52:00,48.9,13.0,30.06,WNW,303,7.0,9.0,24,0.00,,,0.03,weatherlink.com 1.10,2013-03-20 02:52:00,
2013-03-19 23:07:00,48.3,13.0,30.06,NW,310,4.0,6.0,24,0.00,,,0.03,weatherlink.com 1.10,2013-03-20 03:07:00,
2013-03-19 23:22:00,47.7,13.0,30.06,NW,321,2.0,8.0,25,0.00,,,0.03,weatherlink.com 1.10,2013-03-20 03:22:00,
2013-03-19 23:37:00,47.1,14.0,30.07,NW,306,2.0,6.0,26,0.00,,,0.03,weatherlink.com 1.10,2013-03-20 03:37:00,
2013-03-19 23:52:00,47.0,14.0,30.07,NW,305,2.0,7.0,26,0.00,,,0.03,weatherlink.com 1.10,2013-03-20 03:52:00,